createdAt,value
2022-09-21T00:01:06.292Z,13.90
2022-09-21T00:03:39.608Z,13.80
2022-09-21T00:06:11.475Z,13.80
2022-09-21T00:08:44.668Z,13.80
2022-09-21T00:11:16.203Z,13.90
2022-09-21T00:13:43.219Z,14.00
2022-09-21T00:16:16.639Z,13.90
2022-09-21T00:18:49.719Z,13.90
2022-09-21T00:21:16.853Z,13.90
2022-09-21T00:23:50.715Z,14.00
2022-09-21T00:26:25.071Z,14.30
2022-09-21T00:29:03.664Z,14.30
2022-09-21T00:31:30.976Z,14.20
2022-09-21T00:33:58.959Z,14.20
2022-09-21T00:36:32.636Z,14.30
2022-09-21T00:39:00.586Z,14.40
2022-09-21T00:41:35.664Z,14.40
2022-09-21T00:44:39.654Z,14.30
2022-09-21T00:47:18.664Z,14.30
2022-09-21T00:49:48.711Z,14.20
2022-09-21T00:52:22.647Z,14.10
2022-09-21T00:54:54.963Z,14.00
2022-09-21T00:57:29.626Z,14.00
2022-09-21T00:59:57.814Z,14.00
2022-09-21T01:02:31.671Z,14.00
2022-09-21T01:05:04.687Z,14.00
2022-09-21T01:07:39.657Z,14.00
2022-09-21T01:10:14.956Z,14.00
2022-09-21T01:13:39.663Z,13.90
2022-09-21T01:16:21.147Z,13.80
2022-09-21T01:19:11.651Z,13.50
2022-09-21T01:22:08.099Z,13.20
2022-09-21T01:24:57.645Z,13.10
2022-09-21T01:27:42.354Z,13.00
2022-09-21T01:30:23.646Z,13.10
2022-09-21T01:33:04.408Z,12.90
2022-09-21T01:36:04.667Z,13.00
2022-09-21T01:38:35.744Z,12.90
2022-09-21T01:41:10.691Z,12.90
2022-09-21T01:43:42.081Z,12.80
2022-09-21T01:46:23.707Z,12.80
2022-09-21T01:48:56.481Z,12.70
2022-09-21T01:51:29.681Z,12.70
2022-09-21T01:54:01.534Z,12.80
2022-09-21T01:56:39.731Z,12.80
2022-09-21T01:59:21.694Z,12.80
2022-09-21T02:02:21.671Z,12.70
2022-09-21T02:04:48.560Z,12.60
2022-09-21T02:07:23.711Z,12.50
2022-09-21T02:09:50.612Z,12.50
2022-09-21T02:12:23.709Z,12.30
2022-09-21T02:14:50.641Z,12.20
2022-09-21T02:17:38.659Z,12.10
2022-09-21T02:20:24.118Z,12.20
2022-09-21T02:23:06.729Z,12.30
2022-09-21T02:26:06.699Z,12.30
2022-09-21T02:28:50.779Z,12.30
2022-09-21T02:31:49.697Z,12.30
2022-09-21T02:34:39.459Z,12.30
2022-09-21T02:37:20.664Z,12.30
2022-09-21T02:40:16.758Z,12.30
2022-09-21T02:42:49.704Z,12.30
2022-09-21T02:45:23.036Z,12.40
2022-09-21T02:48:12.734Z,12.50
2022-09-21T02:50:53.698Z,12.70
2022-09-21T02:53:26.613Z,12.80
2022-09-21T02:56:01.718Z,12.90
2022-09-21T02:58:34.733Z,12.90
2022-09-21T03:01:07.769Z,12.90
2022-09-21T03:03:40.695Z,12.90
2022-09-21T03:06:14.749Z,12.90
2022-09-21T03:08:47.704Z,12.90
2022-09-21T03:11:18.864Z,13.00
2022-09-21T03:13:52.747Z,13.00
2022-09-21T03:16:25.754Z,13.00
2022-09-21T03:18:58.753Z,13.00
2022-09-21T03:21:25.653Z,13.00
2022-09-21T03:23:52.602Z,13.00
2022-09-21T03:26:25.721Z,13.10
2022-09-21T03:28:52.750Z,13.20
2022-09-21T03:31:19.710Z,13.30
2022-09-21T03:33:52.770Z,13.30
2022-09-21T03:36:19.708Z,13.40
2022-09-21T03:38:52.751Z,13.40
2022-09-21T03:41:19.624Z,13.50
2022-09-21T03:43:52.738Z,13.70
2022-09-21T03:46:19.654Z,13.50
2022-09-21T03:48:54.734Z,13.40
2022-09-21T03:51:21.609Z,13.40
2022-09-21T03:53:54.724Z,13.40
2022-09-21T03:56:27.743Z,13.40
2022-09-21T03:58:54.649Z,13.40
2022-09-21T04:01:27.779Z,13.40
2022-09-21T04:04:00.760Z,13.50
2022-09-21T04:06:27.667Z,13.50
2022-09-21T04:09:00.775Z,13.50
2022-09-21T04:11:27.718Z,13.50
2022-09-21T04:14:01.814Z,13.50
2022-09-21T04:16:28.746Z,13.50
2022-09-21T04:18:55.627Z,13.60
2022-09-21T04:21:28.771Z,13.60
2022-09-21T04:23:55.793Z,13.60
2022-09-21T04:26:38.779Z,13.80
2022-09-21T04:29:05.725Z,13.80
2022-09-21T04:31:39.794Z,13.80
2022-09-21T04:34:06.697Z,13.70
2022-09-21T04:36:36.631Z,13.70
2022-09-21T04:39:11.771Z,13.80
2022-09-21T04:41:38.646Z,13.80
2022-09-21T04:44:11.788Z,13.80
2022-09-21T04:46:38.621Z,13.90
2022-09-21T04:49:11.774Z,13.90
2022-09-21T04:51:38.684Z,14.10
2022-09-21T04:54:11.762Z,14.10
2022-09-21T04:56:38.642Z,14.00
2022-09-21T04:59:05.655Z,14.10
2022-09-21T05:01:38.845Z,14.20
2022-09-21T05:04:05.759Z,14.20
2022-09-21T05:06:39.775Z,14.20
2022-09-21T05:09:12.812Z,14.20
2022-09-21T05:11:39.702Z,14.30
2022-09-21T05:14:12.777Z,14.40
2022-09-21T05:16:45.814Z,14.40
2022-09-21T05:19:18.797Z,14.60
2022-09-21T05:21:45.688Z,14.70
2022-09-21T05:24:18.784Z,14.70
2022-09-21T05:26:45.631Z,14.70
2022-09-21T05:29:12.784Z,14.70
2022-09-21T05:32:27.807Z,14.70
2022-09-21T05:35:03.616Z,14.70
2022-09-21T05:38:03.804Z,14.80
2022-09-21T05:40:31.302Z,14.80
2022-09-21T05:43:04.809Z,14.90
2022-09-21T05:45:32.365Z,15.00
2022-09-21T05:48:46.800Z,15.20
2022-09-21T05:51:36.214Z,15.30
2022-09-21T05:54:25.842Z,15.20
2022-09-21T05:57:33.862Z,15.30
2022-09-21T06:00:24.827Z,15.40
2022-09-21T06:03:13.283Z,15.50
2022-09-21T06:05:49.814Z,15.70
2022-09-21T06:08:16.654Z,15.80
2022-09-21T06:10:43.508Z,16.00
2022-09-21T06:13:16.858Z,16.10
2022-09-21T06:15:43.772Z,16.30
2022-09-21T06:18:18.245Z,16.40
2022-09-21T06:20:52.835Z,16.40
2022-09-21T06:23:19.712Z,16.50
2022-09-21T06:26:00.846Z,16.60
2022-09-21T06:28:27.809Z,16.70
2022-09-21T06:31:01.869Z,16.90
2022-09-21T06:33:28.789Z,16.90
2022-09-21T06:36:06.850Z,17.00
2022-09-21T06:38:33.664Z,16.90
2022-09-21T06:41:10.824Z,17.00
2022-09-21T06:43:43.822Z,17.00
2022-09-21T06:46:10.729Z,16.90
2022-09-21T06:48:43.859Z,17.00
2022-09-21T06:51:10.772Z,16.90
2022-09-21T06:53:43.861Z,16.90
2022-09-21T06:56:16.814Z,16.80
2022-09-21T06:58:49.872Z,16.70
2022-09-21T07:01:16.846Z,16.70
2022-09-21T07:03:50.887Z,16.70
2022-09-21T07:06:18.069Z,16.60
2022-09-21T07:11:38.847Z,16.70
2022-09-21T07:14:11.904Z,16.70
2022-09-21T07:16:38.763Z,16.80
2022-09-21T07:19:12.251Z,16.80
2022-09-21T07:21:39.326Z,16.80
2022-09-21T07:24:11.680Z,16.80
2022-09-21T07:26:45.910Z,16.90
2022-09-21T07:29:12.764Z,17.00
2022-09-21T07:31:45.954Z,17.10
2022-09-21T07:34:13.089Z,17.10
2022-09-21T07:36:46.849Z,17.00
2022-09-21T07:39:13.782Z,16.90
2022-09-21T07:41:46.852Z,16.80
2022-09-21T07:44:13.707Z,16.70
2022-09-21T07:46:45.803Z,16.70
2022-09-21T07:49:21.867Z,16.60
2022-09-21T07:51:48.758Z,16.60
2022-09-21T07:54:21.872Z,16.70
2022-09-21T07:56:55.174Z,16.80
2022-09-21T07:59:28.923Z,16.80
2022-09-21T08:01:55.775Z,16.70
2022-09-21T08:04:28.900Z,16.70
2022-09-21T08:06:55.753Z,16.70
2022-09-21T08:09:28.924Z,16.60
2022-09-21T08:12:01.911Z,16.60
2022-09-21T08:14:34.914Z,16.50
2022-09-21T08:17:08.985Z,16.40
2022-09-21T08:19:35.833Z,16.30
2022-09-21T08:22:02.794Z,16.40
2022-09-21T08:24:35.924Z,16.40
2022-09-21T08:27:08.910Z,16.30
2022-09-21T08:29:41.901Z,16.20
2022-09-21T08:32:08.767Z,16.30
2022-09-21T08:34:41.888Z,16.30
2022-09-21T08:37:15.949Z,16.30
2022-09-21T08:39:48.958Z,16.40
2022-09-21T08:42:27.943Z,16.30
2022-09-21T08:45:01.344Z,16.30
2022-09-21T08:48:04.909Z,16.30
2022-09-21T08:50:48.944Z,16.20
2022-09-21T08:53:26.447Z,16.30
2022-09-21T08:56:03.941Z,16.30
2022-09-21T08:58:32.094Z,16.20
2022-09-21T09:01:26.955Z,16.30
2022-09-21T09:04:27.961Z,16.20
2022-09-21T09:07:24.297Z,16.30
2022-09-21T09:10:19.922Z,16.40
2022-09-21T09:12:58.664Z,16.50
2022-09-21T09:15:59.937Z,16.50
2022-09-21T09:18:57.482Z,16.50
2022-09-21T09:21:41.951Z,16.50
2022-09-21T09:24:50.143Z,16.70
2022-09-21T09:27:46.945Z,16.70
2022-09-21T09:30:25.978Z,16.70
2022-09-21T09:33:06.966Z,16.80
2022-09-21T09:35:55.634Z,16.70
2022-09-21T09:38:50.948Z,16.80
2022-09-21T09:42:02.842Z,16.90
2022-09-21T09:45:06.999Z,16.90
2022-09-21T09:47:57.067Z,16.80
2022-09-21T09:50:38.988Z,16.80
2022-09-21T09:53:17.689Z,16.90
2022-09-21T09:55:56.978Z,17.10
2022-09-21T09:58:52.234Z,17.20
2022-09-21T10:01:51.035Z,17.20
2022-09-21T10:04:25.036Z,17.40
2022-09-21T10:06:58.984Z,17.40
2022-09-21T10:09:33.056Z,17.60
2022-09-21T10:12:31.122Z,17.60
2022-09-21T10:15:04.988Z,17.70
2022-09-21T10:17:31.870Z,17.70
2022-09-21T10:20:12.964Z,17.70
2022-09-21T10:22:39.826Z,17.80
2022-09-21T10:25:20.986Z,17.90
2022-09-21T10:27:49.893Z,17.80
2022-09-21T10:30:44.040Z,18.00
2022-09-21T10:33:21.523Z,18.00
2022-09-21T10:35:58.982Z,18.10
2022-09-21T10:38:26.543Z,18.10
2022-09-21T10:40:59.987Z,18.20
2022-09-21T10:43:38.677Z,18.30
2022-09-21T10:46:15.026Z,18.10
2022-09-21T10:48:44.264Z,18.20
2022-09-21T10:51:36.063Z,18.30
2022-09-21T10:54:09.030Z,18.30
2022-09-21T10:56:41.991Z,18.40
2022-09-21T10:59:20.563Z,18.40
2022-09-21T11:01:57.106Z,18.30
2022-09-21T11:04:44.994Z,18.30
2022-09-21T11:07:35.003Z,18.40
2022-09-21T11:10:34.016Z,18.50
2022-09-21T11:13:44.068Z,18.60
2022-09-21T11:16:13.184Z,18.60
2022-09-21T11:19:15.048Z,18.60
2022-09-21T11:22:34.592Z,18.60
2022-09-21T11:25:32.014Z,18.50
2022-09-21T11:28:13.588Z,18.50
2022-09-21T11:31:48.034Z,18.50
2022-09-21T11:35:21.062Z,18.40
2022-09-21T11:38:02.304Z,18.60
2022-09-21T11:41:03.019Z,18.50
2022-09-21T11:43:47.839Z,18.50
2022-09-21T11:46:45.028Z,18.60
2022-09-21T11:50:29.716Z,18.60
2022-09-21T11:53:28.029Z,18.60
2022-09-21T11:56:43.047Z,18.80
2022-09-21T11:59:49.086Z,18.90
2022-09-21T12:05:42.046Z,19.00
2022-09-21T12:09:30.046Z,19.10
2022-09-21T12:12:38.034Z,19.20
2022-09-21T12:15:24.317Z,19.10
2022-09-21T12:18:05.074Z,19.30
2022-09-21T12:20:47.851Z,19.50
2022-09-21T12:23:43.038Z,19.60
2022-09-21T12:26:11.957Z,19.70
2022-09-21T12:29:12.056Z,19.70
2022-09-21T12:32:05.078Z,19.70
2022-09-21T12:34:42.806Z,19.60
2022-09-21T12:37:30.061Z,19.70
2022-09-21T12:40:28.361Z,19.90
2022-09-21T12:43:08.444Z,19.90
2022-09-21T12:46:07.327Z,19.90
2022-09-21T12:48:43.064Z,20.00
2022-09-21T12:51:42.810Z,20.00
2022-09-21T12:54:35.298Z,19.90
2022-09-21T12:57:49.609Z,20.10
2022-09-21T13:00:31.081Z,20.10
2022-09-21T13:03:28.102Z,19.90
2022-09-21T13:06:37.107Z,20.10
2022-09-21T13:09:06.153Z,20.30
2022-09-21T13:11:42.102Z,20.40
2022-09-21T13:14:18.086Z,20.50
2022-09-21T13:16:44.979Z,20.70
2022-09-21T13:19:27.076Z,20.90
2022-09-21T13:22:22.142Z,20.90
2022-09-21T13:25:36.076Z,21.00
2022-09-21T13:28:14.752Z,21.10
2022-09-21T13:31:39.918Z,21.10
2022-09-21T13:34:29.108Z,21.10
2022-09-21T13:37:25.421Z,21.20
2022-09-21T13:40:10.957Z,20.90
2022-09-21T13:42:38.961Z,21.00
2022-09-21T13:45:18.106Z,20.70
2022-09-21T13:47:46.673Z,20.70
2022-09-21T13:50:36.141Z,20.60
2022-09-21T13:53:35.121Z,20.80
2022-09-21T13:56:25.127Z,21.10
2022-09-21T13:58:53.394Z,21.00
2022-09-21T14:01:47.216Z,20.90
2022-09-21T14:04:33.469Z,20.80
2022-09-21T14:07:12.106Z,20.80
2022-09-21T14:09:59.899Z,20.80
2022-09-21T14:12:34.148Z,20.80
2022-09-21T14:15:22.471Z,20.90
2022-09-21T14:18:19.133Z,21.00
2022-09-21T14:21:18.138Z,21.10
2022-09-21T14:24:07.040Z,21.30
2022-09-21T14:27:09.152Z,21.20
2022-09-21T14:29:53.573Z,21.30
2022-09-21T14:32:30.154Z,21.40
2022-09-21T14:35:20.096Z,21.10
2022-09-21T14:37:59.157Z,21.00
2022-09-21T14:40:30.165Z,20.80
2022-09-21T14:43:05.192Z,20.90
2022-09-21T14:46:08.715Z,20.90
2022-09-21T14:49:03.164Z,20.80
2022-09-21T14:52:20.209Z,20.80
2022-09-21T14:55:34.162Z,20.80
2022-09-21T14:58:45.296Z,20.80
2022-09-21T15:01:34.122Z,20.80
2022-09-21T15:04:50.173Z,20.90
2022-09-21T15:08:16.614Z,21.00
2022-09-21T15:11:33.152Z,21.00
2022-09-21T15:14:33.021Z,20.90
2022-09-21T15:17:06.149Z,20.80
2022-09-21T15:19:43.153Z,20.80
2022-09-21T15:22:24.203Z,20.80
2022-09-21T15:24:59.153Z,20.80
2022-09-21T15:27:37.207Z,20.80
2022-09-21T15:30:14.180Z,20.80
2022-09-21T15:32:42.876Z,20.90
2022-09-21T15:35:26.212Z,20.90
2022-09-21T15:37:53.162Z,20.80
2022-09-21T15:40:41.287Z,20.70
2022-09-21T15:43:14.193Z,20.60
2022-09-21T15:46:00.199Z,20.50
2022-09-21T15:48:45.376Z,20.40
2022-09-21T15:51:15.194Z,20.40
2022-09-21T15:53:55.273Z,20.40
2022-09-21T15:56:26.803Z,20.40
2022-09-21T15:59:09.226Z,20.30
2022-09-21T16:01:40.875Z,20.30
2022-09-21T16:04:14.225Z,20.30
2022-09-21T16:06:44.633Z,20.20
2022-09-21T16:09:52.201Z,20.30
2022-09-21T16:12:44.069Z,20.20
2022-09-21T16:15:33.261Z,20.20
2022-09-21T16:18:02.258Z,20.20
2022-09-21T16:20:50.244Z,20.30
2022-09-21T16:23:22.304Z,20.30
2022-09-21T16:26:06.256Z,20.20
2022-09-21T16:28:46.213Z,20.20
2022-09-21T16:31:34.927Z,20.10
2022-09-21T16:34:37.286Z,20.00
2022-09-21T16:37:21.340Z,20.00
2022-09-21T16:39:55.234Z,20.00
2022-09-21T16:42:29.234Z,20.00
2022-09-21T16:45:02.222Z,19.90
2022-09-21T16:47:29.138Z,19.90
2022-09-21T16:50:06.237Z,19.80
2022-09-21T16:52:40.254Z,19.80
2022-09-21T16:55:08.138Z,19.70
2022-09-21T16:57:41.263Z,19.60
2022-09-21T17:00:12.244Z,19.50
2022-09-21T17:02:45.248Z,19.50
2022-09-21T17:05:18.240Z,19.40
2022-09-21T17:08:02.244Z,19.30
2022-09-21T17:10:32.697Z,19.20
2022-09-21T17:13:06.267Z,19.20
2022-09-21T17:15:40.248Z,19.10
2022-09-21T17:18:07.224Z,19.00
2022-09-21T17:20:49.275Z,19.00
2022-09-21T17:23:16.186Z,18.90
2022-09-21T17:25:49.241Z,18.90
2022-09-21T17:28:32.251Z,18.80
2022-09-21T17:30:59.273Z,18.80
2022-09-21T17:33:32.247Z,18.70
2022-09-21T17:35:59.125Z,18.70
2022-09-21T17:38:32.296Z,18.60
2022-09-21T17:41:27.516Z,18.60
2022-09-21T17:44:17.287Z,18.60
2022-09-21T17:47:08.862Z,18.50
2022-09-21T17:49:42.271Z,18.50
2022-09-21T17:52:18.922Z,18.50
2022-09-21T17:54:52.374Z,18.50
2022-09-21T17:57:47.159Z,18.40
2022-09-21T18:00:27.356Z,18.30
2022-09-21T18:03:01.341Z,18.20
2022-09-21T18:05:36.260Z,18.20
2022-09-21T18:08:03.364Z,18.10
2022-09-21T18:10:30.448Z,18.00
2022-09-21T18:13:48.289Z,18.00
2022-09-21T18:16:55.457Z,18.00
2022-09-21T18:19:46.274Z,18.00
2022-09-21T18:23:00.010Z,18.00
2022-09-21T18:25:43.360Z,17.90
2022-09-21T18:28:47.304Z,17.90
2022-09-21T18:31:43.148Z,17.90
2022-09-21T18:35:03.298Z,17.90
2022-09-21T18:38:30.369Z,17.80
2022-09-21T18:41:33.392Z,17.80
2022-09-21T18:44:25.361Z,17.80
2022-09-21T18:47:48.412Z,17.80
2022-09-21T18:50:41.573Z,17.70
2022-09-21T18:53:54.387Z,17.60
2022-09-21T18:56:32.331Z,17.60
2022-09-21T18:59:06.287Z,17.60
2022-09-21T19:01:34.083Z,17.50
2022-09-21T19:04:08.343Z,17.50
2022-09-21T19:06:47.624Z,17.50
2022-09-21T19:09:54.376Z,17.50
2022-09-21T19:12:45.889Z,17.50
2022-09-21T19:15:59.354Z,17.40
2022-09-21T19:19:16.311Z,17.40
2022-09-21T19:22:16.694Z,17.30
2022-09-21T19:25:10.374Z,17.30
2022-09-21T19:27:48.162Z,17.20
2022-09-21T19:30:23.350Z,17.20
2022-09-21T19:32:56.758Z,17.20
2022-09-21T19:35:34.529Z,17.20
2022-09-21T19:38:02.542Z,17.20
2022-09-21T19:40:40.462Z,17.20
2022-09-21T19:43:31.992Z,17.20
2022-09-21T19:46:48.342Z,17.20
2022-09-21T19:49:18.084Z,17.20
2022-09-21T19:51:55.335Z,17.20
2022-09-21T19:54:24.282Z,17.10
2022-09-21T19:56:58.415Z,17.10
2022-09-21T19:59:25.699Z,17.00
2022-09-21T20:02:05.442Z,17.00
2022-09-21T20:04:54.367Z,17.00
2022-09-21T20:07:52.025Z,17.00
2022-09-21T20:10:37.412Z,17.00
2022-09-21T20:13:19.417Z,16.90
2022-09-21T20:16:40.446Z,16.90
2022-09-21T20:19:27.277Z,16.80
2022-09-21T20:22:25.444Z,16.90
2022-09-21T20:25:08.921Z,17.00
2022-09-21T20:27:53.439Z,16.90
2022-09-21T20:30:23.355Z,16.90
2022-09-21T20:33:06.384Z,16.90
2022-09-21T20:35:33.750Z,16.90
2022-09-21T20:38:07.372Z,16.90
2022-09-21T20:40:34.687Z,17.00
2022-09-21T20:43:08.372Z,16.90
2022-09-21T20:45:41.485Z,16.90
2022-09-21T20:48:15.417Z,16.90
2022-09-21T20:50:54.454Z,16.90
2022-09-21T20:53:21.419Z,16.90
2022-09-21T20:56:02.452Z,16.80
2022-09-21T20:58:39.457Z,16.80
2022-09-21T21:01:06.899Z,16.70
2022-09-21T21:03:40.464Z,16.70
2022-09-21T21:06:14.974Z,16.70
2022-09-21T21:08:48.434Z,16.70
2022-09-21T21:11:21.492Z,16.60
2022-09-21T21:13:48.449Z,16.60
2022-09-21T21:16:15.379Z,16.60
2022-09-21T21:18:48.422Z,16.60
2022-09-21T21:21:15.376Z,16.50
2022-09-21T21:23:48.401Z,16.50
2022-09-21T21:26:15.269Z,16.50
2022-09-21T21:28:48.447Z,16.60
2022-09-21T21:31:20.760Z,16.50
2022-09-21T21:33:48.392Z,16.50
2022-09-21T21:36:21.406Z,16.50
2022-09-21T21:38:54.443Z,16.50
2022-09-21T21:41:21.346Z,16.50
2022-09-21T21:43:54.418Z,16.50
2022-09-21T21:46:27.433Z,16.60
2022-09-21T21:48:54.308Z,16.50
2022-09-21T21:51:27.446Z,16.60
2022-09-21T21:53:54.334Z,16.60
2022-09-21T21:56:27.456Z,16.70
2022-09-21T21:58:54.772Z,16.80
2022-09-21T22:01:27.162Z,16.80
2022-09-21T22:04:05.455Z,16.90
2022-09-21T22:06:40.469Z,16.90
2022-09-21T22:09:10.024Z,17.00
2022-09-21T22:11:37.284Z,16.90
2022-09-21T22:14:11.493Z,16.90
2022-09-21T22:16:45.535Z,17.00
2022-09-21T22:19:12.481Z,17.00
2022-09-21T22:21:53.836Z,16.90
2022-09-21T22:24:21.316Z,16.70
2022-09-21T22:26:54.458Z,16.60
2022-09-21T22:29:21.331Z,16.60
2022-09-21T22:31:49.347Z,16.70
2022-09-21T22:34:23.478Z,16.60
2022-09-21T22:36:50.321Z,16.70
2022-09-21T22:39:23.483Z,16.90
2022-09-21T22:41:50.434Z,17.00
2022-09-21T22:44:23.461Z,16.90
2022-09-21T22:46:56.479Z,16.90
2022-09-21T22:49:23.410Z,16.80
2022-09-21T22:51:50.319Z,16.70
2022-09-21T22:54:23.458Z,16.60
2022-09-21T22:56:56.474Z,16.60
2022-09-21T22:59:23.543Z,16.60
2022-09-21T23:01:50.563Z,16.50
2022-09-21T23:04:24.551Z,16.50
2022-09-21T23:06:51.481Z,16.50
2022-09-21T23:09:26.487Z,16.60
2022-09-21T23:11:53.481Z,16.60
2022-09-21T23:14:27.471Z,16.60
2022-09-21T23:17:00.489Z,16.70
2022-09-21T23:19:27.369Z,16.80
2022-09-21T23:22:00.486Z,16.90
2022-09-21T23:24:33.481Z,17.10
2022-09-21T23:27:00.353Z,17.20
2022-09-21T23:29:33.502Z,17.10
2022-09-21T23:32:00.430Z,17.00
2022-09-21T23:34:33.522Z,16.90
2022-09-21T23:37:06.534Z,16.90
2022-09-21T23:39:33.430Z,16.70
2022-09-21T23:42:00.380Z,16.60
2022-09-21T23:44:40.495Z,16.50
2022-09-21T23:47:07.449Z,16.30
2022-09-21T23:49:40.512Z,16.20
2022-09-21T23:52:07.455Z,16.20
2022-09-21T23:54:40.501Z,16.20
2022-09-21T23:57:13.501Z,16.20
2022-09-21T23:59:40.389Z,16.10
